createdAt,value
2019-05-22T00:00:24.616Z,14.6
2019-05-22T00:01:24.616Z,14.5
2019-05-22T00:02:24.642Z,14.5
2019-05-22T00:03:24.644Z,14.5
2019-05-22T00:04:24.744Z,14.5
2019-05-22T00:05:24.736Z,14.5
2019-05-22T00:06:24.789Z,14.4
2019-05-22T00:07:24.829Z,14.4
2019-05-22T00:08:24.875Z,14.5
2019-05-22T00:09:27.243Z,14.5
2019-05-22T00:10:24.913Z,14.4
2019-05-22T00:11:24.995Z,14.4
2019-05-22T00:12:25.015Z,14.5
2019-05-22T00:13:25.046Z,14.4
2019-05-22T00:14:25.090Z,14.4
2019-05-22T00:15:25.155Z,14.4
2019-05-22T00:16:25.203Z,14.5
2019-05-22T00:17:25.272Z,14.3
2019-05-22T00:18:25.334Z,14.3
2019-05-22T00:19:25.388Z,14.4
2019-05-22T00:20:25.385Z,14.3
2019-05-22T00:21:25.418Z,14.3
2019-05-22T00:22:25.488Z,14.3
2019-05-22T00:23:25.520Z,14.3
2019-05-22T00:24:25.523Z,14.3
2019-05-22T00:25:25.573Z,14.3
2019-05-22T00:26:25.546Z,14.3
2019-05-22T00:27:25.635Z,14.3
2019-05-22T00:28:25.688Z,14.4
2019-05-22T00:29:25.776Z,14.4
2019-05-22T00:30:25.783Z,14.4
2019-05-22T00:31:25.770Z,14.3
2019-05-22T00:32:25.818Z,14.4
2019-05-22T00:33:25.882Z,14.3
2019-05-22T00:34:25.899Z,14.3
2019-05-22T00:35:25.976Z,14.4
2019-05-22T00:36:25.969Z,14.4
2019-05-22T00:37:26.050Z,14.4
2019-05-22T00:38:26.088Z,14.4
2019-05-22T00:39:26.136Z,14.5
2019-05-22T00:40:26.229Z,14.4
2019-05-22T00:41:26.179Z,14.3
2019-05-22T00:42:26.254Z,14.4
2019-05-22T00:43:26.242Z,14.4
2019-05-22T00:44:26.294Z,14.4
2019-05-22T00:45:26.325Z,14.4
2019-05-22T00:46:26.315Z,14.4
2019-05-22T00:47:26.354Z,14.5
2019-05-22T00:48:26.415Z,14.5
2019-05-22T00:49:26.410Z,14.5
2019-05-22T00:50:26.470Z,14.5
2019-05-22T00:51:26.466Z,14.5
2019-05-22T00:52:26.545Z,14.5
2019-05-22T00:53:26.532Z,14.5
2019-05-22T00:54:26.597Z,14.6
2019-05-22T00:55:26.621Z,14.6
2019-05-22T00:56:26.638Z,14.6
2019-05-22T00:57:26.656Z,14.6
2019-05-22T00:58:27.743Z,14.6
2019-05-22T00:59:26.699Z,14.6
2019-05-22T01:00:26.754Z,14.5
2019-05-22T01:01:26.781Z,14.6
2019-05-22T01:02:26.809Z,14.6
2019-05-22T01:03:26.882Z,14.6
2019-05-22T01:04:26.903Z,14.6
2019-05-22T01:05:26.931Z,14.6
2019-05-22T01:06:26.965Z,14.6
2019-05-22T01:07:27.031Z,14.6
2019-05-22T01:08:27.058Z,14.6
2019-05-22T01:09:27.059Z,14.7
2019-05-22T01:10:28.138Z,14.6
2019-05-22T01:11:27.141Z,14.7
2019-05-22T01:12:27.148Z,14.7
2019-05-22T01:13:27.198Z,14.7
2019-05-22T01:14:41.855Z,14.7
2019-05-22T01:15:27.227Z,14.7
2019-05-22T01:16:27.266Z,14.7
2019-05-22T01:17:27.280Z,14.7
2019-05-22T01:18:27.340Z,14.6
2019-05-22T01:19:27.362Z,14.6
2019-05-22T01:20:27.365Z,14.7
2019-05-22T01:21:27.396Z,14.6
2019-05-22T01:22:27.410Z,14.6
2019-05-22T01:23:27.455Z,14.7
2019-05-22T01:24:27.471Z,14.7
2019-05-22T01:25:27.480Z,14.6
2019-05-22T01:26:27.484Z,14.7
2019-05-22T01:27:27.518Z,14.6
2019-05-22T01:28:27.542Z,14.7
2019-05-22T01:29:27.559Z,14.6
2019-05-22T01:30:27.558Z,14.6
2019-05-22T01:31:27.581Z,14.6
2019-05-22T01:32:27.602Z,14.6
2019-05-22T01:33:27.618Z,14.6
2019-05-22T01:34:27.655Z,14.7
2019-05-22T01:35:27.667Z,14.7
2019-05-22T01:36:27.711Z,14.7
2019-05-22T01:37:27.714Z,14.7
2019-05-22T01:38:27.702Z,14.8
2019-05-22T01:39:27.758Z,14.7
2019-05-22T01:40:27.797Z,14.6
2019-05-22T01:41:27.755Z,14.6
2019-05-22T01:42:27.760Z,14.6
2019-05-22T01:43:27.758Z,14.6
2019-05-22T01:44:27.802Z,14.6
2019-05-22T01:45:27.780Z,14.6
2019-05-22T01:46:27.838Z,14.6
2019-05-22T01:47:27.822Z,14.6
2019-05-22T01:48:27.837Z,14.6
2019-05-22T01:49:27.842Z,14.6
2019-05-22T01:50:27.832Z,14.6
2019-05-22T01:51:27.837Z,14.6
2019-05-22T01:52:27.863Z,14.6
2019-05-22T01:53:27.865Z,14.6
2019-05-22T01:54:27.890Z,14.5
2019-05-22T01:55:27.859Z,14.6
2019-05-22T01:56:27.886Z,14.6
2019-05-22T01:57:27.915Z,14.6
2019-05-22T01:58:27.998Z,14.6
2019-05-22T01:59:27.909Z,14.6
2019-05-22T02:00:27.869Z,14.6
2019-05-22T02:01:27.928Z,14.6
2019-05-22T02:02:27.967Z,14.6
2019-05-22T02:03:28.001Z,14.6
2019-05-22T02:04:28.116Z,14.6
2019-05-22T02:05:28.153Z,14.6
2019-05-22T02:06:28.213Z,14.6
2019-05-22T02:07:28.231Z,14.6
2019-05-22T02:08:28.276Z,14.6
2019-05-22T02:09:28.372Z,14.6
2019-05-22T02:10:28.356Z,14.6
2019-05-22T02:11:28.408Z,14.6
2019-05-22T02:12:28.469Z,14.7
2019-05-22T02:13:28.508Z,14.7
2019-05-22T02:14:28.620Z,14.7
2019-05-22T02:15:28.597Z,14.7
2019-05-22T02:16:28.613Z,14.7
2019-05-22T02:17:28.657Z,14.8
2019-05-22T02:18:28.709Z,14.7
2019-05-22T02:19:28.810Z,14.6
2019-05-22T02:20:28.897Z,14.7
2019-05-22T02:21:28.863Z,14.7
2019-05-22T02:22:28.836Z,14.8
2019-05-22T02:23:28.833Z,14.7
2019-05-22T02:24:28.954Z,14.7
2019-05-22T02:25:28.962Z,14.8
2019-05-22T02:26:31.246Z,14.8
2019-05-22T02:27:29.033Z,14.7
2019-05-22T02:28:29.058Z,14.7
2019-05-22T02:29:29.088Z,14.7
2019-05-22T02:30:29.173Z,14.7
2019-05-22T02:31:29.189Z,14.6
2019-05-22T02:32:29.253Z,14.5
2019-05-22T02:33:31.634Z,14.5
2019-05-22T02:34:29.350Z,14.5
2019-05-22T02:35:29.332Z,14.5
2019-05-22T02:36:29.417Z,14.5
2019-05-22T02:37:29.470Z,14.5
2019-05-22T02:38:29.457Z,14.5
2019-05-22T02:39:29.549Z,14.5
2019-05-22T02:40:29.558Z,14.6
2019-05-22T02:41:29.575Z,14.5
2019-05-22T02:42:29.628Z,14.5
2019-05-22T02:43:29.650Z,14.4
2019-05-22T02:44:29.661Z,14.4
2019-05-22T02:45:29.697Z,14.4
2019-05-22T02:46:29.800Z,14.4
2019-05-22T02:47:29.792Z,14.4
2019-05-22T02:48:29.854Z,14.4
2019-05-22T02:49:29.854Z,14.6
2019-05-22T02:50:29.907Z,14.5
2019-05-22T02:51:29.952Z,14.5
2019-05-22T02:52:29.970Z,14.4
2019-05-22T02:53:29.983Z,14.5
2019-05-22T02:54:29.978Z,14.5
2019-05-22T02:55:30.041Z,14.5
2019-05-22T02:56:30.093Z,14.4
2019-05-22T02:57:30.056Z,14.5
2019-05-22T02:58:30.093Z,14.4
2019-05-22T02:59:30.216Z,14.4
2019-05-22T03:00:30.173Z,14.4
2019-05-22T03:01:30.256Z,14.4
2019-05-22T03:02:30.305Z,14.4
2019-05-22T03:03:30.297Z,14.4
2019-05-22T03:04:30.339Z,14.4
2019-05-22T03:05:30.301Z,14.4
2019-05-22T03:06:30.300Z,14.4
2019-05-22T03:07:30.326Z,14.4
2019-05-22T03:08:30.336Z,14.4
2019-05-22T03:09:30.363Z,14.4
2019-05-22T03:10:30.408Z,14.4
2019-05-22T03:11:34.441Z,14.4
2019-05-22T03:12:30.440Z,14.5
2019-05-22T03:13:30.447Z,14.5
2019-05-22T03:14:30.465Z,14.4
2019-05-22T03:15:30.509Z,14.5
2019-05-22T03:16:30.482Z,14.4
2019-05-22T03:17:30.584Z,14.5
2019-05-22T03:18:30.576Z,14.5
2019-05-22T03:19:30.554Z,14.5
2019-05-22T03:20:30.566Z,14.5
2019-05-22T03:21:30.592Z,14.4
2019-05-22T03:22:30.686Z,14.5
2019-05-22T03:23:30.610Z,14.4
2019-05-22T03:24:30.619Z,14.4
2019-05-22T03:25:30.621Z,14.4
2019-05-22T03:26:30.632Z,14.4
2019-05-22T03:27:30.666Z,14.4
2019-05-22T03:28:30.666Z,14.4
2019-05-22T03:29:30.643Z,14.3
2019-05-22T03:30:30.703Z,14.3
2019-05-22T03:31:30.677Z,14.3
2019-05-22T03:32:30.721Z,14.2
2019-05-22T03:33:30.693Z,14.3
2019-05-22T03:34:30.709Z,14.3
2019-05-22T03:35:30.733Z,14.3
2019-05-22T03:36:30.732Z,14.3
2019-05-22T03:37:30.737Z,14.4
2019-05-22T03:38:30.742Z,14.3
2019-05-22T03:39:30.908Z,14.3
2019-05-22T03:40:30.915Z,14.3
2019-05-22T03:41:30.803Z,14.3
2019-05-22T03:42:30.745Z,14.3
2019-05-22T03:43:30.811Z,14.2
2019-05-22T03:44:30.727Z,14.2
2019-05-22T03:45:30.777Z,14.1
2019-05-22T03:46:30.744Z,14.1
2019-05-22T03:47:30.840Z,14.1
2019-05-22T03:48:30.885Z,14.1
2019-05-22T03:49:31.344Z,14
2019-05-22T03:50:30.842Z,14.1
2019-05-22T03:51:30.943Z,14.1
2019-05-22T03:52:30.999Z,14.1
2019-05-22T03:53:31.016Z,14.1
2019-05-22T03:54:31.093Z,14.1
2019-05-22T03:55:31.162Z,14.1
2019-05-22T03:56:31.233Z,14.2
2019-05-22T03:57:31.285Z,14.2
2019-05-22T03:58:31.345Z,14.2
2019-05-22T03:59:31.345Z,14.2
2019-05-22T04:00:31.429Z,14.3
2019-05-22T04:01:31.426Z,14.3
2019-05-22T04:02:31.526Z,14.3
2019-05-22T04:03:31.539Z,14.4
2019-05-22T04:04:31.569Z,14.4
2019-05-22T04:05:31.596Z,14.3
2019-05-22T04:06:31.650Z,14.3
2019-05-22T04:07:31.676Z,14.3
2019-05-22T04:08:31.737Z,14.4
2019-05-22T04:09:31.733Z,14.4
2019-05-22T04:10:31.805Z,14.4
2019-05-22T04:11:31.811Z,14.4
2019-05-22T04:12:31.866Z,14.5
2019-05-22T04:13:31.940Z,14.5
2019-05-22T04:14:31.939Z,14.5
2019-05-22T04:15:31.990Z,14.5
2019-05-22T04:16:32.100Z,14.5
2019-05-22T04:17:32.090Z,14.5
2019-05-22T04:18:32.142Z,14.4
2019-05-22T04:19:47.227Z,14.4
2019-05-22T04:20:32.163Z,14.4
2019-05-22T04:21:32.228Z,14.4
2019-05-22T04:22:32.299Z,14.4
2019-05-22T04:23:32.295Z,14.4
2019-05-22T04:24:32.272Z,14.3
2019-05-22T04:25:32.423Z,14.3
2019-05-22T04:26:32.343Z,14.3
2019-05-22T04:27:32.354Z,14.3
2019-05-22T04:28:32.384Z,14.3
2019-05-22T04:29:32.421Z,14.3
2019-05-22T04:30:32.490Z,14.3
2019-05-22T04:31:32.550Z,14.3
2019-05-22T04:32:32.586Z,14.3
2019-05-22T04:33:32.670Z,14.3
2019-05-22T04:34:32.687Z,14.3
2019-05-22T04:35:32.666Z,14.3
2019-05-22T04:36:32.710Z,14.2
2019-05-22T04:37:32.805Z,14.2
2019-05-22T04:38:32.977Z,14.2
2019-05-22T04:39:32.828Z,14.3
2019-05-22T04:40:32.878Z,14.3
2019-05-22T04:41:32.911Z,14.3
2019-05-22T04:42:32.979Z,14.3
2019-05-22T04:43:32.972Z,14.4
2019-05-22T04:44:32.968Z,14.4
2019-05-22T04:45:32.993Z,14.4
2019-05-22T04:46:33.059Z,14.4
2019-05-22T04:47:33.061Z,14.4
2019-05-22T04:48:33.112Z,14.5
2019-05-22T04:49:33.131Z,14.5
2019-05-22T04:50:33.168Z,14.6
2019-05-22T04:51:33.285Z,14.6
2019-05-22T04:52:33.191Z,14.5
2019-05-22T04:53:33.214Z,14.5
2019-05-22T04:54:33.258Z,14.5
2019-05-22T04:55:33.277Z,14.6
2019-05-22T04:56:33.335Z,14.6
2019-05-22T04:57:33.315Z,14.6
2019-05-22T04:58:33.336Z,14.6
2019-05-22T04:59:34.406Z,14.6
2019-05-22T05:00:33.401Z,14.6
2019-05-22T05:01:33.457Z,14.6
2019-05-22T05:02:33.446Z,14.6
2019-05-22T05:03:33.470Z,14.7
2019-05-22T05:04:33.486Z,14.7
2019-05-22T05:05:33.525Z,14.7
2019-05-22T05:06:33.562Z,14.7
2019-05-22T05:07:33.547Z,14.7
2019-05-22T05:08:33.574Z,14.7
2019-05-22T05:09:33.565Z,14.7
2019-05-22T05:10:33.574Z,14.7
2019-05-22T05:11:33.597Z,14.8
2019-05-22T05:12:33.616Z,14.7
2019-05-22T05:13:33.653Z,14.7
2019-05-22T05:14:33.651Z,14.8
2019-05-22T05:15:36.714Z,14.7
2019-05-22T05:16:33.713Z,14.7
2019-05-22T05:17:33.698Z,14.5
2019-05-22T05:18:33.721Z,14.4
2019-05-22T05:19:33.739Z,14.5
2019-05-22T05:20:33.736Z,14.5
2019-05-22T05:21:33.748Z,14.5
2019-05-22T05:22:33.763Z,14.4
2019-05-22T05:23:33.751Z,14.4
2019-05-22T05:24:33.798Z,14.4
2019-05-22T05:25:33.825Z,14.5
2019-05-22T05:26:33.801Z,14.4
2019-05-22T05:27:33.809Z,14.4
2019-05-22T05:28:33.821Z,14.4
2019-05-22T05:29:33.899Z,14.3
2019-05-22T05:30:33.909Z,14.4
2019-05-22T05:31:33.849Z,14.4
2019-05-22T05:32:34.280Z,14.4
2019-05-22T05:33:33.912Z,14.4
2019-05-22T05:34:33.865Z,14.4
2019-05-22T05:35:33.866Z,14.4
2019-05-22T05:36:33.869Z,14.4
2019-05-22T05:37:33.892Z,14.3
2019-05-22T05:38:33.938Z,14.3
2019-05-22T05:39:33.903Z,14.4
2019-05-22T05:40:34.003Z,14.3
2019-05-22T05:41:33.900Z,14.3
2019-05-22T05:42:33.891Z,14.2
2019-05-22T05:43:33.957Z,14.3
2019-05-22T05:44:33.984Z,14.2
2019-05-22T05:45:34.000Z,14.2
2019-05-22T05:46:34.081Z,14.2
2019-05-22T05:47:34.110Z,14.1
2019-05-22T05:48:34.212Z,14
2019-05-22T05:49:34.238Z,14
2019-05-22T05:50:39.268Z,14.1
2019-05-22T05:51:34.318Z,14
2019-05-22T05:52:34.382Z,14
2019-05-22T05:53:34.454Z,14
2019-05-22T05:54:34.452Z,14
2019-05-22T05:55:34.480Z,14
2019-05-22T05:56:34.557Z,14
2019-05-22T05:57:34.589Z,14
2019-05-22T05:58:34.638Z,14
2019-05-22T05:59:34.668Z,14
2019-05-22T06:00:34.630Z,14.1
2019-05-22T06:01:34.679Z,14.1
2019-05-22T06:02:34.652Z,14.1
2019-05-22T06:03:34.739Z,14.1
2019-05-22T06:04:35.565Z,14.1
2019-05-22T06:05:35.873Z,14.1
2019-05-22T06:06:34.888Z,14.1
2019-05-22T06:07:34.899Z,14.2
2019-05-22T06:08:34.936Z,14.2
2019-05-22T06:09:34.969Z,14.2
2019-05-22T06:10:34.999Z,14.2
2019-05-22T06:11:35.037Z,14.1
2019-05-22T06:12:35.021Z,14.1
2019-05-22T06:13:35.076Z,14.1
2019-05-22T06:14:35.130Z,14
2019-05-22T06:15:46.247Z,13.9
2019-05-22T06:16:35.186Z,13.9
2019-05-22T06:17:35.213Z,14
2019-05-22T06:18:35.242Z,14
2019-05-22T06:19:35.322Z,14
2019-05-22T06:20:35.342Z,14
2019-05-22T06:21:35.370Z,14
2019-05-22T06:22:35.408Z,14
2019-05-22T06:23:35.447Z,14
2019-05-22T06:24:35.514Z,13.9
2019-05-22T06:25:35.526Z,13.8
2019-05-22T06:26:35.575Z,13.8
2019-05-22T06:27:35.631Z,13.9
2019-05-22T06:28:35.659Z,13.9
2019-05-22T06:29:35.738Z,13.8
2019-05-22T06:30:35.770Z,13.8
2019-05-22T06:31:35.765Z,14
2019-05-22T06:32:35.841Z,13.9
2019-05-22T06:33:35.860Z,13.9
2019-05-22T06:34:35.919Z,13.9
2019-05-22T06:35:35.930Z,14
2019-05-22T06:36:35.957Z,14
2019-05-22T06:37:36.014Z,14
2019-05-22T06:38:36.046Z,14
2019-05-22T06:39:36.097Z,14
2019-05-22T06:40:36.118Z,14
2019-05-22T06:41:36.124Z,14
2019-05-22T06:42:36.165Z,14
2019-05-22T06:43:36.223Z,14
2019-05-22T06:44:36.269Z,13.9
2019-05-22T06:45:36.312Z,13.9
2019-05-22T06:46:36.293Z,13.9
2019-05-22T06:47:36.306Z,13.9
2019-05-22T06:48:36.333Z,13.8
2019-05-22T06:49:36.379Z,13.7
2019-05-22T06:50:36.394Z,13.7
2019-05-22T06:51:36.390Z,13.7
2019-05-22T06:52:36.510Z,13.7
2019-05-22T06:53:36.462Z,13.7
2019-05-22T06:54:36.467Z,13.6
2019-05-22T06:55:36.488Z,13.5
2019-05-22T06:56:36.529Z,13.5
2019-05-22T06:57:36.542Z,13.5
2019-05-22T06:58:36.537Z,13.6
2019-05-22T06:59:36.549Z,13.6
2019-05-22T07:00:36.604Z,13.6
2019-05-22T07:01:36.615Z,13.6
2019-05-22T07:02:36.640Z,13.6
2019-05-22T07:03:36.649Z,13.7
2019-05-22T07:04:36.660Z,13.7
2019-05-22T07:05:36.670Z,13.7
2019-05-22T07:06:36.681Z,13.7
2019-05-22T07:07:36.722Z,13.7
2019-05-22T07:08:36.767Z,13.8
2019-05-22T07:09:36.736Z,13.7
2019-05-22T07:10:36.724Z,13.7
2019-05-22T07:11:36.751Z,13.5
2019-05-22T07:12:36.791Z,13.5
2019-05-22T07:13:36.765Z,13.4
2019-05-22T07:14:36.786Z,13.5
2019-05-22T07:15:36.839Z,13.5
2019-05-22T07:16:36.799Z,13.5
2019-05-22T07:17:36.841Z,13.5
2019-05-22T07:18:36.814Z,13.5
2019-05-22T07:19:36.821Z,13.5
2019-05-22T07:20:36.829Z,13.5
2019-05-22T07:21:36.836Z,13.5
2019-05-22T07:22:36.827Z,13.6
2019-05-22T07:23:36.852Z,13.5
2019-05-22T07:24:36.902Z,13.5
2019-05-22T07:25:36.996Z,13.5
2019-05-22T07:26:37.031Z,13.5
2019-05-22T07:27:36.989Z,13.6
2019-05-22T07:28:37.050Z,13.6
2019-05-22T07:29:37.099Z,13.7
2019-05-22T07:30:37.152Z,13.6
2019-05-22T07:31:37.231Z,13.6
2019-05-22T07:32:37.258Z,13.6
2019-05-22T07:33:37.301Z,13.6
2019-05-22T07:34:37.371Z,13.5
2019-05-22T07:35:50.223Z,13.6
2019-05-22T07:36:37.442Z,13.5
2019-05-22T07:37:37.491Z,13.5
2019-05-22T07:38:37.524Z,13.5
2019-05-22T07:39:37.561Z,13.4
2019-05-22T07:40:37.604Z,13.5
2019-05-22T07:41:37.695Z,13.5
2019-05-22T07:42:37.709Z,13.4
2019-05-22T07:43:41.128Z,13.4
2019-05-22T07:44:37.760Z,13.5
2019-05-22T07:45:37.827Z,13.4
2019-05-22T07:46:38.157Z,13.4
2019-05-22T07:47:37.902Z,13.4
2019-05-22T07:48:37.994Z,13.3
2019-05-22T07:49:38.007Z,13.4
2019-05-22T07:50:38.109Z,13.5
2019-05-22T07:51:51.804Z,13.5
2019-05-22T07:52:38.160Z,13.4
2019-05-22T07:53:38.232Z,13.4
2019-05-22T07:54:38.278Z,13.4
2019-05-22T07:55:38.317Z,13.3
2019-05-22T07:56:38.387Z,13.2
2019-05-22T07:57:38.439Z,13.2
2019-05-22T07:58:38.431Z,13.2
2019-05-22T07:59:38.486Z,13.1
2019-05-22T08:00:38.583Z,13.1
2019-05-22T08:01:38.614Z,13.1
2019-05-22T08:02:38.615Z,13.1
2019-05-22T08:03:38.670Z,13.1
2019-05-22T08:04:38.720Z,13
2019-05-22T08:05:38.898Z,13
2019-05-22T08:06:38.852Z,13
2019-05-22T08:07:38.897Z,13.1
2019-05-22T08:08:38.871Z,13
2019-05-22T08:09:38.966Z,13
2019-05-22T08:10:38.980Z,13.1
2019-05-22T08:11:38.999Z,13.1
2019-05-22T08:12:39.027Z,13.1
2019-05-22T08:13:39.039Z,13.1
2019-05-22T08:14:39.065Z,13
2019-05-22T08:15:39.143Z,13
2019-05-22T08:16:39.206Z,13
2019-05-22T08:17:39.186Z,13
2019-05-22T08:18:39.228Z,13
2019-05-22T08:19:39.254Z,13
2019-05-22T08:20:39.280Z,13.1
2019-05-22T08:21:39.341Z,13.1
2019-05-22T08:22:39.357Z,13.1
2019-05-22T08:23:39.486Z,13.1
2019-05-22T08:24:39.423Z,13
2019-05-22T08:25:39.482Z,13.1
2019-05-22T08:26:53.112Z,13.1
2019-05-22T08:27:39.512Z,13.1
2019-05-22T08:28:39.564Z,13.2
2019-05-22T08:29:39.587Z,13.1
2019-05-22T08:30:39.653Z,13.1
2019-05-22T08:31:39.706Z,13.1
2019-05-22T08:32:39.732Z,13
2019-05-22T08:33:39.792Z,13
2019-05-22T08:34:39.802Z,13
2019-05-22T08:35:39.868Z,13
2019-05-22T08:36:40.022Z,13.1
2019-05-22T08:37:39.920Z,13.1
2019-05-22T08:38:39.984Z,13.1
2019-05-22T08:39:39.949Z,13.1
2019-05-22T08:40:39.970Z,13
2019-05-22T08:41:40.007Z,13
2019-05-22T08:42:40.046Z,13.1
2019-05-22T08:43:56.385Z,13.1
2019-05-22T08:44:40.094Z,13
2019-05-22T08:45:40.187Z,13
2019-05-22T08:46:40.145Z,13
2019-05-22T08:47:40.183Z,13
2019-05-22T08:48:46.848Z,13
2019-05-22T08:49:40.244Z,13
2019-05-22T08:50:40.577Z,13
2019-05-22T08:51:40.272Z,13
2019-05-22T08:52:42.510Z,13
2019-05-22T08:53:47.091Z,13
2019-05-22T08:54:40.364Z,13.1
2019-05-22T08:55:40.343Z,13.1
2019-05-22T08:56:40.378Z,13.1
2019-05-22T08:57:40.376Z,13.1
2019-05-22T08:58:40.367Z,13.1
2019-05-22T08:59:40.426Z,13.1
2019-05-22T09:00:40.416Z,12.9
2019-05-22T09:01:40.410Z,13
2019-05-22T09:02:40.444Z,13
2019-05-22T09:03:40.461Z,12.9
2019-05-22T09:04:40.491Z,12.9
2019-05-22T09:05:40.499Z,12.9
2019-05-22T09:06:40.500Z,12.9
2019-05-22T09:07:40.783Z,12.9
2019-05-22T09:08:40.731Z,12.9
2019-05-22T09:09:40.497Z,12.9
2019-05-22T09:10:40.533Z,12.9
2019-05-22T09:11:40.544Z,12.8
2019-05-22T09:12:40.555Z,12.9
2019-05-22T09:13:40.582Z,12.9
2019-05-22T09:14:40.545Z,13
2019-05-22T09:15:40.548Z,13
2019-05-22T09:16:40.580Z,12.9
2019-05-22T09:17:40.564Z,13
2019-05-22T09:18:40.608Z,13
2019-05-22T09:19:40.557Z,12.9
2019-05-22T09:20:49.102Z,13
2019-05-22T09:21:40.768Z,13.1
2019-05-22T09:22:41.571Z,13.1
2019-05-22T09:23:40.742Z,13.1
2019-05-22T09:24:40.713Z,13
2019-05-22T09:25:40.816Z,13
2019-05-22T09:26:40.890Z,13
2019-05-22T09:27:43.165Z,13.1
2019-05-22T09:28:40.919Z,13
2019-05-22T09:29:41.013Z,13
2019-05-22T09:30:41.013Z,13
2019-05-22T09:31:41.048Z,13.1
2019-05-22T09:32:41.074Z,13.2
2019-05-22T09:33:41.129Z,13.2
2019-05-22T09:34:41.174Z,13
2019-05-22T09:35:41.349Z,12.9
2019-05-22T09:36:41.325Z,12.8
2019-05-22T09:37:41.360Z,12.9
2019-05-22T09:38:41.341Z,12.9
2019-05-22T09:39:41.422Z,13
2019-05-22T09:40:41.424Z,13
2019-05-22T09:41:41.449Z,13.1
2019-05-22T09:42:41.479Z,13.1
2019-05-22T09:43:41.484Z,13
2019-05-22T09:44:41.534Z,13.1
2019-05-22T09:45:41.603Z,13
2019-05-22T09:46:41.724Z,13
2019-05-22T09:47:41.659Z,13
2019-05-22T09:48:41.687Z,12.9
2019-05-22T09:49:41.737Z,12.8
2019-05-22T09:50:41.810Z,12.8
2019-05-22T09:51:41.854Z,12.7
2019-05-22T09:52:56.137Z,12.7
2019-05-22T09:53:41.919Z,12.6
2019-05-22T09:54:41.925Z,12.6
2019-05-22T09:55:42.013Z,12.7
2019-05-22T09:56:42.039Z,12.7
2019-05-22T09:57:42.136Z,12.7
2019-05-22T09:58:42.097Z,12.8
2019-05-22T09:59:42.133Z,12.8
2019-05-22T10:00:42.227Z,12.8
2019-05-22T10:01:42.269Z,12.9
2019-05-22T10:02:42.289Z,12.9
2019-05-22T10:03:42.287Z,12.9
2019-05-22T10:04:42.363Z,12.9
2019-05-22T10:05:42.564Z,12.9
2019-05-22T10:06:42.368Z,12.9
2019-05-22T10:07:57.512Z,12.9
2019-05-22T10:08:42.425Z,12.8
2019-05-22T10:09:42.452Z,12.7
2019-05-22T10:10:42.479Z,12.8
2019-05-22T10:11:42.509Z,12.8
2019-05-22T10:12:42.551Z,12.8
2019-05-22T10:13:42.621Z,12.6
2019-05-22T10:14:42.674Z,12.5
2019-05-22T10:15:42.673Z,12.6
2019-05-22T10:16:44.959Z,12.5
2019-05-22T10:17:42.748Z,12.6
2019-05-22T10:18:42.795Z,12.7
2019-05-22T10:19:42.890Z,12.7
2019-05-22T10:20:42.926Z,12.6
2019-05-22T10:21:42.843Z,12.5
2019-05-22T10:22:42.892Z,12.6
2019-05-22T10:23:42.937Z,12.6
2019-05-22T10:24:42.951Z,12.6
2019-05-22T10:25:42.998Z,12.7
2019-05-22T10:26:43.996Z,12.7
2019-05-22T10:27:42.995Z,12.7
2019-05-22T10:28:43.013Z,12.5
2019-05-22T10:29:43.021Z,12.5
2019-05-22T10:30:43.053Z,12.5
2019-05-22T10:31:43.101Z,12.6
2019-05-22T10:32:43.084Z,12.6
2019-05-22T10:33:43.081Z,12.3
2019-05-22T10:34:43.112Z,12.3
2019-05-22T10:35:43.146Z,12.3
2019-05-22T10:36:43.360Z,12.4
2019-05-22T10:37:45.523Z,12.4
2019-05-22T10:38:43.303Z,12.6
2019-05-22T10:39:43.233Z,12.5
2019-05-22T10:40:43.254Z,12.5
2019-05-22T10:41:43.323Z,12.2
2019-05-22T10:42:44.803Z,12.3
2019-05-22T10:43:43.316Z,12.3
2019-05-22T10:44:43.363Z,12.3
2019-05-22T10:45:43.404Z,12.4
2019-05-22T10:46:43.451Z,12.5
2019-05-22T10:47:43.426Z,12.5
2019-05-22T10:48:43.446Z,12.5
2019-05-22T10:49:43.493Z,12.2
2019-05-22T10:50:43.510Z,12.2
2019-05-22T10:51:43.577Z,12.4
2019-05-22T10:52:43.541Z,12.3
2019-05-22T10:53:43.584Z,12.3
2019-05-22T10:54:43.677Z,12.5
2019-05-22T10:55:43.617Z,12.6
2019-05-22T10:56:43.667Z,12.6
2019-05-22T10:57:44.462Z,12.6
2019-05-22T10:58:43.669Z,12.6
2019-05-22T10:59:43.771Z,12.5
2019-05-22T11:00:43.682Z,12.5
2019-05-22T11:01:43.729Z,12.6
2019-05-22T11:02:43.682Z,12.4
2019-05-22T11:03:43.708Z,12.4
2019-05-22T11:04:43.728Z,12.4
2019-05-22T11:05:43.729Z,12.4
2019-05-22T11:06:43.782Z,12.3
2019-05-22T11:07:43.847Z,12.2
2019-05-22T11:08:43.754Z,12.2
2019-05-22T11:09:43.770Z,12.2
2019-05-22T11:10:45.222Z,12.2
2019-05-22T11:11:43.836Z,12.1
2019-05-22T11:12:43.791Z,12.1
2019-05-22T11:13:59.697Z,12.1
2019-05-22T11:14:43.854Z,12.1
2019-05-22T11:15:43.835Z,12.1
2019-05-22T11:16:43.852Z,12.3
2019-05-22T11:17:43.842Z,12.3
2019-05-22T11:18:43.875Z,12.3
2019-05-22T11:19:43.926Z,12.2
2019-05-22T11:20:43.862Z,12.2
2019-05-22T11:21:43.867Z,12.3
2019-05-22T11:22:43.941Z,12.3
2019-05-22T11:23:51.736Z,12.2
2019-05-22T11:24:44.010Z,12.2
2019-05-22T11:25:44.102Z,12.3
2019-05-22T11:26:44.130Z,12.3
2019-05-22T11:27:44.198Z,12.2
2019-05-22T11:28:44.241Z,12.1
2019-05-22T11:29:44.322Z,12.1
2019-05-22T11:30:44.351Z,12.1
2019-05-22T11:31:44.336Z,12.2
2019-05-22T11:32:44.339Z,12.1
2019-05-22T11:33:44.383Z,12.1
2019-05-22T11:34:44.439Z,12
2019-05-22T11:35:44.529Z,12.1
2019-05-22T11:36:44.554Z,12.1
2019-05-22T11:37:44.649Z,12.2
2019-05-22T11:38:44.604Z,12.1
2019-05-22T11:39:45.083Z,12.1
2019-05-22T11:40:44.705Z,12
2019-05-22T11:41:44.774Z,12
2019-05-22T11:42:44.833Z,12
2019-05-22T11:43:44.879Z,12
2019-05-22T11:44:44.936Z,12
2019-05-22T11:45:45.607Z,12.1
2019-05-22T11:46:45.083Z,12.1
2019-05-22T11:47:45.064Z,12
2019-05-22T11:48:45.106Z,12
2019-05-22T11:49:45.135Z,12.1
2019-05-22T11:50:45.150Z,12.1
2019-05-22T11:51:45.236Z,12.1
2019-05-22T11:52:45.248Z,12.2
2019-05-22T11:53:45.303Z,12.2
2019-05-22T11:54:45.323Z,12.2
2019-05-22T11:55:46.218Z,12.2
2019-05-22T11:56:45.437Z,12.2
2019-05-22T11:57:45.470Z,12.2
2019-05-22T11:58:45.551Z,12.2
2019-05-22T11:59:45.538Z,12.2
2019-05-22T12:00:45.600Z,12.3
2019-05-22T12:01:45.646Z,12.3
2019-05-22T12:02:45.689Z,12.4
2019-05-22T12:03:45.738Z,12.2
2019-05-22T12:04:48.253Z,12.4
2019-05-22T12:05:45.763Z,12.3
2019-05-22T12:06:45.805Z,12.4
2019-05-22T12:07:45.785Z,12.4
2019-05-22T12:08:45.869Z,12.5
2019-05-22T12:09:45.815Z,12.5
2019-05-22T12:10:45.908Z,12.4
2019-05-22T12:11:45.921Z,12.3
2019-05-22T12:12:45.905Z,12.3
2019-05-22T12:13:45.947Z,12.4
2019-05-22T12:14:46.021Z,12.4
2019-05-22T12:15:46.061Z,12.4
2019-05-22T12:16:46.112Z,12.6
2019-05-22T12:17:46.125Z,12.7
2019-05-22T12:18:46.194Z,12.6
2019-05-22T12:19:46.217Z,12.6
2019-05-22T12:20:46.272Z,12.6
2019-05-22T12:21:46.285Z,12.8
2019-05-22T12:22:46.292Z,12.9
2019-05-22T12:23:46.366Z,12.9
2019-05-22T12:24:46.390Z,12.9
2019-05-22T12:25:46.405Z,12.9
2019-05-22T12:26:46.473Z,12.9
2019-05-22T12:27:46.466Z,12.9
2019-05-22T12:28:46.527Z,12.9
2019-05-22T12:29:46.565Z,12.9
2019-05-22T12:30:46.547Z,12.8
2019-05-22T12:31:46.593Z,12.9
2019-05-22T12:32:46.595Z,12.7
2019-05-22T12:33:46.618Z,12.8
2019-05-22T12:34:49.172Z,12.9
2019-05-22T12:35:46.641Z,13
2019-05-22T12:36:50.377Z,13
2019-05-22T12:37:46.870Z,13
2019-05-22T12:38:46.746Z,13.1
2019-05-22T12:39:46.765Z,13.1
2019-05-22T12:40:46.796Z,13.1
2019-05-22T12:41:46.844Z,13.1
2019-05-22T12:42:46.871Z,12.9
2019-05-22T12:43:47.857Z,12.9
2019-05-22T12:44:46.879Z,13
2019-05-22T12:45:46.933Z,13.1
2019-05-22T12:46:46.912Z,13.2
2019-05-22T12:47:47.022Z,13.3
2019-05-22T12:48:46.922Z,13.3
2019-05-22T12:49:46.998Z,13.3
2019-05-22T12:50:46.930Z,13.3
2019-05-22T12:51:46.988Z,13.1
2019-05-22T12:52:49.244Z,13.1
2019-05-22T12:53:46.959Z,13.1
2019-05-22T12:54:51.624Z,13.1
2019-05-22T12:55:46.999Z,13.1
2019-05-22T12:56:46.994Z,13.1
2019-05-22T12:57:47.002Z,13.1
2019-05-22T12:58:47.039Z,13.1
2019-05-22T12:59:47.047Z,13
2019-05-22T13:00:47.010Z,13.1
2019-05-22T13:01:47.058Z,13.2
2019-05-22T13:02:47.031Z,13.2
2019-05-22T13:03:47.036Z,13.3
2019-05-22T13:04:47.013Z,13.4
2019-05-22T13:05:47.112Z,13.4
2019-05-22T13:06:47.204Z,13.3
2019-05-22T13:07:47.192Z,12
2019-05-22T13:08:49.851Z,13.4
2019-05-22T13:09:48.340Z,13.4
2019-05-22T13:10:49.834Z,13.4
2019-05-22T13:11:47.379Z,13.5
2019-05-22T13:12:47.419Z,13.4
2019-05-22T13:13:47.483Z,13.5
2019-05-22T13:14:47.563Z,13.5
2019-05-22T13:15:47.587Z,13.6
2019-05-22T13:16:49.126Z,13.5
2019-05-22T13:17:47.709Z,13.5
2019-05-22T13:18:47.667Z,13.5
2019-05-22T13:19:47.738Z,13.6
2019-05-22T13:20:47.858Z,13.7
2019-05-22T13:21:47.808Z,13.7
2019-05-22T13:22:47.925Z,13.6
2019-05-22T13:23:47.868Z,13.6
2019-05-22T13:24:47.882Z,13.6